sensor_id;sensor_type;location;lat;lon;timestamp;temperature;humidity
25914;DHT22;13718;50.922;5.346;2023-05-29T00:01:40;15.80;99.90
25914;DHT22;13718;50.922;5.346;2023-05-29T00:04:06;15.80;99.90
25914;DHT22;13718;50.922;5.346;2023-05-29T00:06:32;15.80;99.90
25914;DHT22;13718;50.922;5.346;2023-05-29T00:08:57;15.70;99.90
25914;DHT22;13718;50.922;5.346;2023-05-29T00:11:23;15.60;99.90
25914;DHT22;13718;50.922;5.346;2023-05-29T00:13:48;15.70;99.90
25914;DHT22;13718;50.922;5.346;2023-05-29T00:16:14;15.50;99.90
25914;DHT22;13718;50.922;5.346;2023-05-29T00:18:39;15.50;99.90
25914;DHT22;13718;50.922;5.346;2023-05-29T00:21:11;15.50;99.90
25914;DHT22;13718;50.922;5.346;2023-05-29T00:23:38;15.40;99.90
25914;DHT22;13718;50.922;5.346;2023-05-29T00:26:03;15.40;99.90
25914;DHT22;13718;50.922;5.346;2023-05-29T00:28:29;15.40;99.90
25914;DHT22;13718;50.922;5.346;2023-05-29T00:30:54;15.40;99.90
25914;DHT22;13718;50.922;5.346;2023-05-29T00:33:20;15.40;99.90
25914;DHT22;13718;50.922;5.346;2023-05-29T00:35:46;15.30;99.90
25914;DHT22;13718;50.922;5.346;2023-05-29T00:38:11;15.20;99.90
25914;DHT22;13718;50.922;5.346;2023-05-29T00:40:37;15.20;99.90
25914;DHT22;13718;50.922;5.346;2023-05-29T00:43:04;15.30;99.90
25914;DHT22;13718;50.922;5.346;2023-05-29T00:45:30;15.10;99.90
25914;DHT22;13718;50.922;5.346;2023-05-29T00:47:57;15.00;99.90
25914;DHT22;13718;50.922;5.346;2023-05-29T00:50:23;15.00;99.90
25914;DHT22;13718;50.922;5.346;2023-05-29T00:52:49;15.00;99.90
25914;DHT22;13718;50.922;5.346;2023-05-29T00:55:15;14.90;99.90
25914;DHT22;13718;50.922;5.346;2023-05-29T00:57:41;14.90;99.90
25914;DHT22;13718;50.922;5.346;2023-05-29T01:00:08;14.90;99.90
25914;DHT22;13718;50.922;5.346;2023-05-29T01:02:40;14.80;99.90
25914;DHT22;13718;50.922;5.346;2023-05-29T01:05:06;14.80;99.90
25914;DHT22;13718;50.922;5.346;2023-05-29T01:07:32;14.70;99.90
25914;DHT22;13718;50.922;5.346;2023-05-29T01:09:59;14.70;99.90
25914;DHT22;13718;50.922;5.346;2023-05-29T01:15:24;14.60;99.90
25914;DHT22;13718;50.922;5.346;2023-05-29T01:26:51;14.30;99.90
25914;DHT22;13718;50.922;5.346;2023-05-29T01:29:26;14.20;99.90
25914;DHT22;13718;50.922;5.346;2023-05-29T01:31:53;14.10;99.90
25914;DHT22;13718;50.922;5.346;2023-05-29T01:34:19;14.10;99.90
25914;DHT22;13718;50.922;5.346;2023-05-29T01:36:45;14.00;99.90
25914;DHT22;13718;50.922;5.346;2023-05-29T01:39:15;14.00;99.90
25914;DHT22;13718;50.922;5.346;2023-05-29T01:41:43;14.00;99.90
25914;DHT22;13718;50.922;5.346;2023-05-29T01:44:09;14.10;99.90
25914;DHT22;13718;50.922;5.346;2023-05-29T01:46:40;14.00;99.90
25914;DHT22;13718;50.922;5.346;2023-05-29T01:49:06;14.00;99.90
25914;DHT22;13718;50.922;5.346;2023-05-29T01:51:32;13.90;99.90
25914;DHT22;13718;50.922;5.346;2023-05-29T01:53:59;13.80;99.90
25914;DHT22;13718;50.922;5.346;2023-05-29T01:56:26;13.80;99.90
25914;DHT22;13718;50.922;5.346;2023-05-29T01:58:54;13.80;99.90
25914;DHT22;13718;50.922;5.346;2023-05-29T02:01:21;13.80;99.90
25914;DHT22;13718;50.922;5.346;2023-05-29T02:03:47;13.90;99.90
25914;DHT22;13718;50.922;5.346;2023-05-29T02:06:13;13.80;99.90
25914;DHT22;13718;50.922;5.346;2023-05-29T02:08:38;13.80;99.90
25914;DHT22;13718;50.922;5.346;2023-05-29T02:11:04;13.90;99.90
25914;DHT22;13718;50.922;5.346;2023-05-29T02:13:29;13.70;99.90
25914;DHT22;13718;50.922;5.346;2023-05-29T02:15:55;13.60;99.90
25914;DHT22;13718;50.922;5.346;2023-05-29T02:18:21;13.50;99.90
25914;DHT22;13718;50.922;5.346;2023-05-29T02:20:46;13.40;99.90
25914;DHT22;13718;50.922;5.346;2023-05-29T02:23:12;13.30;99.90
25914;DHT22;13718;50.922;5.346;2023-05-29T02:25:38;13.50;99.90
25914;DHT22;13718;50.922;5.346;2023-05-29T02:28:04;13.40;99.90
25914;DHT22;13718;50.922;5.346;2023-05-29T02:30:30;13.40;99.90
25914;DHT22;13718;50.922;5.346;2023-05-29T02:32:55;13.40;99.90
25914;DHT22;13718;50.922;5.346;2023-05-29T02:35:21;13.30;99.90
25914;DHT22;13718;50.922;5.346;2023-05-29T02:37:51;13.30;99.90
25914;DHT22;13718;50.922;5.346;2023-05-29T02:40:17;13.30;99.90
25914;DHT22;13718;50.922;5.346;2023-05-29T02:42:43;13.20;99.90
25914;DHT22;13718;50.922;5.346;2023-05-29T02:45:09;13.20;99.90
25914;DHT22;13718;50.922;5.346;2023-05-29T02:47:35;13.20;99.90
25914;DHT22;13718;50.922;5.346;2023-05-29T02:50:01;13.20;99.90
25914;DHT22;13718;50.922;5.346;2023-05-29T02:52:27;13.20;99.90
25914;DHT22;13718;50.922;5.346;2023-05-29T02:54:53;13.20;99.90
25914;DHT22;13718;50.922;5.346;2023-05-29T02:57:21;13.20;99.90
25914;DHT22;13718;50.922;5.346;2023-05-29T02:59:46;13.20;99.90
25914;DHT22;13718;50.922;5.346;2023-05-29T03:02:12;13.20;99.90
25914;DHT22;13718;50.922;5.346;2023-05-29T03:04:38;13.20;99.90
25914;DHT22;13718;50.922;5.346;2023-05-29T03:07:03;13.30;99.90
25914;DHT22;13718;50.922;5.346;2023-05-29T03:09:29;13.30;99.90
25914;DHT22;13718;50.922;5.346;2023-05-29T03:11:55;13.10;99.90
25914;DHT22;13718;50.922;5.346;2023-05-29T03:14:20;13.00;99.90
25914;DHT22;13718;50.922;5.346;2023-05-29T03:16:47;13.00;99.90
25914;DHT22;13718;50.922;5.346;2023-05-29T03:19:13;12.90;99.90
25914;DHT22;13718;50.922;5.346;2023-05-29T03:21:39;12.90;99.90
25914;DHT22;13718;50.922;5.346;2023-05-29T03:24:04;12.80;99.90
25914;DHT22;13718;50.922;5.346;2023-05-29T03:26:30;12.70;99.90
25914;DHT22;13718;50.922;5.346;2023-05-29T03:28:56;12.70;99.90
25914;DHT22;13718;50.922;5.346;2023-05-29T03:31:22;12.60;99.90
25914;DHT22;13718;50.922;5.346;2023-05-29T03:33:48;12.60;99.90
25914;DHT22;13718;50.922;5.346;2023-05-29T03:36:14;12.50;99.90
25914;DHT22;13718;50.922;5.346;2023-05-29T03:38:42;12.50;99.90
25914;DHT22;13718;50.922;5.346;2023-05-29T03:41:08;12.50;99.90
25914;DHT22;13718;50.922;5.346;2023-05-29T03:43:34;12.50;99.90
25914;DHT22;13718;50.922;5.346;2023-05-29T03:46:00;12.60;99.90
25914;DHT22;13718;50.922;5.346;2023-05-29T03:48:25;12.70;99.90
25914;DHT22;13718;50.922;5.346;2023-05-29T03:50:51;12.60;99.90
25914;DHT22;13718;50.922;5.346;2023-05-29T03:53:16;12.70;99.90
25914;DHT22;13718;50.922;5.346;2023-05-29T03:55:42;12.60;99.90
25914;DHT22;13718;50.922;5.346;2023-05-29T03:58:08;12.70;99.90
25914;DHT22;13718;50.922;5.346;2023-05-29T04:00:33;12.60;99.90
25914;DHT22;13718;50.922;5.346;2023-05-29T04:02:59;12.50;99.90
25914;DHT22;13718;50.922;5.346;2023-05-29T04:05:24;12.60;99.90
25914;DHT22;13718;50.922;5.346;2023-05-29T04:07:52;12.50;99.90
25914;DHT22;13718;50.922;5.346;2023-05-29T04:10:17;12.50;99.90
25914;DHT22;13718;50.922;5.346;2023-05-29T04:12:43;12.50;99.90
25914;DHT22;13718;50.922;5.346;2023-05-29T04:15:09;12.50;99.90
25914;DHT22;13718;50.922;5.346;2023-05-29T04:17:34;12.80;99.90
25914;DHT22;13718;50.922;5.346;2023-05-29T04:20:00;12.70;99.90
25914;DHT22;13718;50.922;5.346;2023-05-29T04:22:31;12.60;99.90
25914;DHT22;13718;50.922;5.346;2023-05-29T04:24:57;12.60;99.90
25914;DHT22;13718;50.922;5.346;2023-05-29T04:27:22;12.40;99.90
25914;DHT22;13718;50.922;5.346;2023-05-29T04:29:48;12.50;99.90
25914;DHT22;13718;50.922;5.346;2023-05-29T04:32:13;12.50;99.90
25914;DHT22;13718;50.922;5.346;2023-05-29T04:34:39;12.80;99.90
25914;DHT22;13718;50.922;5.346;2023-05-29T04:37:05;12.70;99.90
25914;DHT22;13718;50.922;5.346;2023-05-29T04:39:31;12.80;99.90
25914;DHT22;13718;50.922;5.346;2023-05-29T04:41:57;12.70;99.90
25914;DHT22;13718;50.922;5.346;2023-05-29T04:44:26;12.80;99.90
25914;DHT22;13718;50.922;5.346;2023-05-29T04:46:52;12.80;99.90
25914;DHT22;13718;50.922;5.346;2023-05-29T04:49:18;12.80;99.90
25914;DHT22;13718;50.922;5.346;2023-05-29T04:51:44;12.70;99.90
25914;DHT22;13718;50.922;5.346;2023-05-29T04:54:11;12.80;99.90
25914;DHT22;13718;50.922;5.346;2023-05-29T04:56:36;12.80;99.90
25914;DHT22;13718;50.922;5.346;2023-05-29T04:59:03;12.80;99.90
25914;DHT22;13718;50.922;5.346;2023-05-29T05:01:28;12.90;99.90
25914;DHT22;13718;50.922;5.346;2023-05-29T05:03:54;13.00;99.90
25914;DHT22;13718;50.922;5.346;2023-05-29T05:06:22;13.10;99.90
25914;DHT22;13718;50.922;5.346;2023-05-29T05:08:47;13.00;99.90
25914;DHT22;13718;50.922;5.346;2023-05-29T05:11:14;13.30;99.90
25914;DHT22;13718;50.922;5.346;2023-05-29T05:13:39;13.30;99.90
25914;DHT22;13718;50.922;5.346;2023-05-29T05:16:05;13.40;99.90
25914;DHT22;13718;50.922;5.346;2023-05-29T05:18:31;13.50;99.90
25914;DHT22;13718;50.922;5.346;2023-05-29T05:20:57;13.70;99.90
25914;DHT22;13718;50.922;5.346;2023-05-29T05:23:22;13.70;99.90
25914;DHT22;13718;50.922;5.346;2023-05-29T05:25:48;13.90;99.90
25914;DHT22;13718;50.922;5.346;2023-05-29T05:28:13;14.30;99.90
25914;DHT22;13718;50.922;5.346;2023-05-29T05:30:39;15.10;99.90
25914;DHT22;13718;50.922;5.346;2023-05-29T05:33:04;16.00;99.90
25914;DHT22;13718;50.922;5.346;2023-05-29T05:35:30;17.00;99.90
25914;DHT22;13718;50.922;5.346;2023-05-29T05:37:56;18.00;99.90
25914;DHT22;13718;50.922;5.346;2023-05-29T05:40:24;18.50;99.60
25914;DHT22;13718;50.922;5.346;2023-05-29T05:42:50;18.70;98.00
25914;DHT22;13718;50.922;5.346;2023-05-29T05:45:16;19.30;96.80
25914;DHT22;13718;50.922;5.346;2023-05-29T05:47:41;19.80;95.40
25914;DHT22;13718;50.922;5.346;2023-05-29T05:50:07;20.10;93.90
25914;DHT22;13718;50.922;5.346;2023-05-29T05:52:33;20.50;93.70
25914;DHT22;13718;50.922;5.346;2023-05-29T05:54:59;21.00;92.70
25914;DHT22;13718;50.922;5.346;2023-05-29T05:57:25;21.40;91.50
25914;DHT22;13718;50.922;5.346;2023-05-29T05:59:51;21.30;90.30
25914;DHT22;13718;50.922;5.346;2023-05-29T06:02:16;21.40;90.20
25914;DHT22;13718;50.922;5.346;2023-05-29T06:04:42;21.80;89.60
25914;DHT22;13718;50.922;5.346;2023-05-29T06:07:08;22.60;88.00
25914;DHT22;13718;50.922;5.346;2023-05-29T06:09:34;23.00;84.10
25914;DHT22;13718;50.922;5.346;2023-05-29T06:12:00;23.10;82.10
25914;DHT22;13718;50.922;5.346;2023-05-29T06:14:26;23.50;82.10
25914;DHT22;13718;50.922;5.346;2023-05-29T06:16:51;24.10;80.40
25914;DHT22;13718;50.922;5.346;2023-05-29T06:19:17;24.50;77.80
25914;DHT22;13718;50.922;5.346;2023-05-29T06:21:42;24.40;76.60
25914;DHT22;13718;50.922;5.346;2023-05-29T06:24:08;24.80;75.80
25914;DHT22;13718;50.922;5.346;2023-05-29T06:26:34;25.10;74.10
25914;DHT22;13718;50.922;5.346;2023-05-29T06:29:00;25.10;72.90
25914;DHT22;13718;50.922;5.346;2023-05-29T06:31:25;25.20;72.10
25914;DHT22;13718;50.922;5.346;2023-05-29T06:33:51;25.00;72.00
25914;DHT22;13718;50.922;5.346;2023-05-29T06:36:16;25.00;72.00
25914;DHT22;13718;50.922;5.346;2023-05-29T06:38:48;25.10;72.00
25914;DHT22;13718;50.922;5.346;2023-05-29T06:41:14;25.20;70.70
25914;DHT22;13718;50.922;5.346;2023-05-29T06:43:40;25.20;71.40
25914;DHT22;13718;50.922;5.346;2023-05-29T06:46:05;25.50;71.10
25914;DHT22;13718;50.922;5.346;2023-05-29T06:48:34;25.70;68.90
25914;DHT22;13718;50.922;5.346;2023-05-29T06:51:01;25.70;69.30
25914;DHT22;13718;50.922;5.346;2023-05-29T06:53:27;26.10;68.90
25914;DHT22;13718;50.922;5.346;2023-05-29T06:55:53;25.70;68.20
25914;DHT22;13718;50.922;5.346;2023-05-29T06:58:18;26.00;68.40
25914;DHT22;13718;50.922;5.346;2023-05-29T07:00:44;26.20;67.70
25914;DHT22;13718;50.922;5.346;2023-05-29T07:03:10;26.50;66.70
25914;DHT22;13718;50.922;5.346;2023-05-29T07:05:35;26.90;64.80
25914;DHT22;13718;50.922;5.346;2023-05-29T07:08:01;27.10;64.90
25914;DHT22;13718;50.922;5.346;2023-05-29T07:10:27;27.30;64.20
25914;DHT22;13718;50.922;5.346;2023-05-29T07:12:52;27.40;63.90
25914;DHT22;13718;50.922;5.346;2023-05-29T07:15:18;27.10;62.80
25914;DHT22;13718;50.922;5.346;2023-05-29T07:17:43;26.30;63.90
25914;DHT22;13718;50.922;5.346;2023-05-29T07:20:09;26.60;64.70
25914;DHT22;13718;50.922;5.346;2023-05-29T07:22:35;27.20;63.60
25914;DHT22;13718;50.922;5.346;2023-05-29T07:25:02;27.60;62.90
25914;DHT22;13718;50.922;5.346;2023-05-29T07:27:28;27.90;62.20
25914;DHT22;13718;50.922;5.346;2023-05-29T07:29:54;27.80;60.60
25914;DHT22;13718;50.922;5.346;2023-05-29T07:32:20;27.20;61.30
25914;DHT22;13718;50.922;5.346;2023-05-29T07:34:47;27.40;63.50
25914;DHT22;13718;50.922;5.346;2023-05-29T07:37:15;27.30;61.50
25914;DHT22;13718;50.922;5.346;2023-05-29T07:39:41;27.40;62.40
25914;DHT22;13718;50.922;5.346;2023-05-29T07:42:07;27.70;61.10
25914;DHT22;13718;50.922;5.346;2023-05-29T07:44:33;27.40;61.30
25914;DHT22;13718;50.922;5.346;2023-05-29T07:46:59;27.60;61.10
25914;DHT22;13718;50.922;5.346;2023-05-29T07:49:24;27.30;60.50
25914;DHT22;13718;50.922;5.346;2023-05-29T07:51:50;27.00;61.90
25914;DHT22;13718;50.922;5.346;2023-05-29T07:54:16;27.30;61.80
25914;DHT22;13718;50.922;5.346;2023-05-29T07:56:43;27.30;60.90
25914;DHT22;13718;50.922;5.346;2023-05-29T07:59:10;27.20;62.10
25914;DHT22;13718;50.922;5.346;2023-05-29T08:01:36;27.70;60.90
25914;DHT22;13718;50.922;5.346;2023-05-29T08:04:02;28.20;60.50
25914;DHT22;13718;50.922;5.346;2023-05-29T08:06:27;28.40;59.30
25914;DHT22;13718;50.922;5.346;2023-05-29T08:08:53;28.40;59.40
25914;DHT22;13718;50.922;5.346;2023-05-29T08:11:19;28.60;58.60
25914;DHT22;13718;50.922;5.346;2023-05-29T08:13:45;29.10;58.90
25914;DHT22;13718;50.922;5.346;2023-05-29T08:16:11;29.40;57.70
25914;DHT22;13718;50.922;5.346;2023-05-29T08:18:39;29.20;57.60
25914;DHT22;13718;50.922;5.346;2023-05-29T08:21:05;29.50;57.70
25914;DHT22;13718;50.922;5.346;2023-05-29T08:23:30;30.00;56.80
25914;DHT22;13718;50.922;5.346;2023-05-29T08:25:57;30.20;55.70
25914;DHT22;13718;50.922;5.346;2023-05-29T08:28:22;29.80;55.80
25914;DHT22;13718;50.922;5.346;2023-05-29T08:30:48;30.00;56.30
25914;DHT22;13718;50.922;5.346;2023-05-29T08:33:14;30.30;55.70
25914;DHT22;13718;50.922;5.346;2023-05-29T08:35:39;29.80;55.60
25914;DHT22;13718;50.922;5.346;2023-05-29T08:38:05;30.10;55.10
25914;DHT22;13718;50.922;5.346;2023-05-29T08:40:31;30.50;55.20
25914;DHT22;13718;50.922;5.346;2023-05-29T08:43:08;30.40;53.80
25914;DHT22;13718;50.922;5.346;2023-05-29T08:45:39;30.30;55.00
25914;DHT22;13718;50.922;5.346;2023-05-29T08:48:09;30.20;54.70
25914;DHT22;13718;50.922;5.346;2023-05-29T08:50:37;28.30;56.40
25914;DHT22;13718;50.922;5.346;2023-05-29T08:53:06;28.00;57.60
25914;DHT22;13718;50.922;5.346;2023-05-29T08:55:32;27.80;58.10
25914;DHT22;13718;50.922;5.346;2023-05-29T08:57:58;28.10;57.90
25914;DHT22;13718;50.922;5.346;2023-05-29T09:00:24;28.40;57.80
25914;DHT22;13718;50.922;5.346;2023-05-29T09:02:54;28.50;57.10
25914;DHT22;13718;50.922;5.346;2023-05-29T09:05:21;28.00;57.60
25914;DHT22;13718;50.922;5.346;2023-05-29T09:07:47;27.90;57.10
25914;DHT22;13718;50.922;5.346;2023-05-29T09:10:15;27.80;58.40
25914;DHT22;13718;50.922;5.346;2023-05-29T09:12:41;28.20;58.60
25914;DHT22;13718;50.922;5.346;2023-05-29T09:15:27;28.10;57.10
25914;DHT22;13718;50.922;5.346;2023-05-29T09:17:55;27.50;58.50
25914;DHT22;13718;50.922;5.346;2023-05-29T09:20:23;27.60;58.80
25914;DHT22;13718;50.922;5.346;2023-05-29T09:23:15;27.80;57.70
25914;DHT22;13718;50.922;5.346;2023-05-29T09:25:43;27.60;58.00
25914;DHT22;13718;50.922;5.346;2023-05-29T09:28:09;27.30;57.90
25914;DHT22;13718;50.922;5.346;2023-05-29T09:30:42;27.40;59.30
25914;DHT22;13718;50.922;5.346;2023-05-29T09:33:10;27.60;58.80
25914;DHT22;13718;50.922;5.346;2023-05-29T09:35:37;27.10;58.80
25914;DHT22;13718;50.922;5.346;2023-05-29T09:38:04;26.30;59.90
25914;DHT22;13718;50.922;5.346;2023-05-29T09:40:36;26.60;60.60
25914;DHT22;13718;50.922;5.346;2023-05-29T09:43:11;25.60;61.30
25914;DHT22;13718;50.922;5.346;2023-05-29T09:45:41;24.10;65.10
25914;DHT22;13718;50.922;5.346;2023-05-29T09:48:12;22.80;68.00
25914;DHT22;13718;50.922;5.346;2023-05-29T09:50:39;22.60;69.40
25914;DHT22;13718;50.922;5.346;2023-05-29T09:53:19;22.60;69.00
25914;DHT22;13718;50.922;5.346;2023-05-29T09:55:48;22.30;71.10
25914;DHT22;13718;50.922;5.346;2023-05-29T09:58:15;22.30;71.70
25914;DHT22;13718;50.922;5.346;2023-05-29T10:00:42;22.30;71.30
25914;DHT22;13718;50.922;5.346;2023-05-29T10:03:09;22.10;72.50
25914;DHT22;13718;50.922;5.346;2023-05-29T10:05:37;21.90;73.10
25914;DHT22;13718;50.922;5.346;2023-05-29T10:08:04;21.80;72.90
25914;DHT22;13718;50.922;5.346;2023-05-29T10:10:30;21.60;72.70
25914;DHT22;13718;50.922;5.346;2023-05-29T10:12:57;21.50;73.50
25914;DHT22;13718;50.922;5.346;2023-05-29T10:15:23;21.60;73.70
25914;DHT22;13718;50.922;5.346;2023-05-29T10:18:03;21.40;74.50
25914;DHT22;13718;50.922;5.346;2023-05-29T10:20:31;21.50;74.50
25914;DHT22;13718;50.922;5.346;2023-05-29T10:23:00;21.50;73.30
25914;DHT22;13718;50.922;5.346;2023-05-29T10:25:29;21.40;74.30
25914;DHT22;13718;50.922;5.346;2023-05-29T10:27:57;21.30;74.70
25914;DHT22;13718;50.922;5.346;2023-05-29T10:30:30;21.10;74.10
25914;DHT22;13718;50.922;5.346;2023-05-29T10:33:18;21.30;74.50
25914;DHT22;13718;50.922;5.346;2023-05-29T10:38:39;21.60;73.30
25914;DHT22;13718;50.922;5.346;2023-05-29T10:43:56;20.80;75.80
25914;DHT22;13718;50.922;5.346;2023-05-29T10:49:21;20.40;75.70
25914;DHT22;13718;50.922;5.346;2023-05-29T10:51:47;20.50;76.60
25914;DHT22;13718;50.922;5.346;2023-05-29T10:54:14;20.30;76.90
25914;DHT22;13718;50.922;5.346;2023-05-29T10:56:40;20.30;76.80
25914;DHT22;13718;50.922;5.346;2023-05-29T10:59:09;20.40;76.50
25914;DHT22;13718;50.922;5.346;2023-05-29T11:01:38;20.40;76.40
25914;DHT22;13718;50.922;5.346;2023-05-29T11:06:46;21.30;75.00
25914;DHT22;13718;50.922;5.346;2023-05-29T11:09:36;21.30;74.70
25914;DHT22;13718;50.922;5.346;2023-05-29T11:12:24;21.50;74.10
25914;DHT22;13718;50.922;5.346;2023-05-29T11:15:09;21.30;73.80
25914;DHT22;13718;50.922;5.346;2023-05-29T11:23:03;21.70;73.40
25914;DHT22;13718;50.922;5.346;2023-05-29T11:25:30;22.10;72.70
25914;DHT22;13718;50.922;5.346;2023-05-29T11:27:58;22.10;73.00
25914;DHT22;13718;50.922;5.346;2023-05-29T11:30:23;22.10;73.00
25914;DHT22;13718;50.922;5.346;2023-05-29T11:32:49;21.60;71.60
25914;DHT22;13718;50.922;5.346;2023-05-29T11:35:19;21.20;73.00
25914;DHT22;13718;50.922;5.346;2023-05-29T11:37:47;21.20;74.00
25914;DHT22;13718;50.922;5.346;2023-05-29T11:40:13;21.40;73.50
25914;DHT22;13718;50.922;5.346;2023-05-29T11:42:44;21.80;72.40
25914;DHT22;13718;50.922;5.346;2023-05-29T11:45:14;21.90;71.70
25914;DHT22;13718;50.922;5.346;2023-05-29T11:47:57;21.90;72.80
25914;DHT22;13718;50.922;5.346;2023-05-29T11:50:25;21.80;72.60
25914;DHT22;13718;50.922;5.346;2023-05-29T11:52:51;21.70;72.70
25914;DHT22;13718;50.922;5.346;2023-05-29T11:55:21;21.60;73.30
25914;DHT22;13718;50.922;5.346;2023-05-29T11:57:48;21.40;73.30
25914;DHT22;13718;50.922;5.346;2023-05-29T12:00:18;21.40;74.10
25914;DHT22;13718;50.922;5.346;2023-05-29T12:02:45;21.40;73.80
25914;DHT22;13718;50.922;5.346;2023-05-29T12:05:13;21.70;74.30
25914;DHT22;13718;50.922;5.346;2023-05-29T12:07:52;21.80;73.70
25914;DHT22;13718;50.922;5.346;2023-05-29T12:10:20;21.80;73.30
25914;DHT22;13718;50.922;5.346;2023-05-29T12:12:54;22.10;73.50
25914;DHT22;13718;50.922;5.346;2023-05-29T12:15:20;22.20;71.80
25914;DHT22;13718;50.922;5.346;2023-05-29T12:17:51;22.10;72.30
25914;DHT22;13718;50.922;5.346;2023-05-29T12:20:17;21.90;72.80
25914;DHT22;13718;50.922;5.346;2023-05-29T12:22:44;21.60;73.20
25914;DHT22;13718;50.922;5.346;2023-05-29T12:25:18;21.40;73.40
25914;DHT22;13718;50.922;5.346;2023-05-29T12:27:46;21.30;73.50
25914;DHT22;13718;50.922;5.346;2023-05-29T12:32:46;21.90;72.50
25914;DHT22;13718;50.922;5.346;2023-05-29T12:35:26;22.00;72.30
25914;DHT22;13718;50.922;5.346;2023-05-29T12:38:00;22.30;71.40
25914;DHT22;13718;50.922;5.346;2023-05-29T12:40:28;22.60;71.00
25914;DHT22;13718;50.922;5.346;2023-05-29T12:43:07;22.60;70.60
25914;DHT22;13718;50.922;5.346;2023-05-29T12:45:35;22.80;70.20
25914;DHT22;13718;50.922;5.346;2023-05-29T12:48:03;22.80;69.60
25914;DHT22;13718;50.922;5.346;2023-05-29T12:50:33;22.90;69.70
25914;DHT22;13718;50.922;5.346;2023-05-29T12:53:04;22.60;71.20
25914;DHT22;13718;50.922;5.346;2023-05-29T12:55:40;22.50;70.80
25914;DHT22;13718;50.922;5.346;2023-05-29T12:58:13;22.60;71.50
25914;DHT22;13718;50.922;5.346;2023-05-29T13:00:43;22.50;71.80
25914;DHT22;13718;50.922;5.346;2023-05-29T13:03:09;22.70;71.70
25914;DHT22;13718;50.922;5.346;2023-05-29T13:05:36;22.70;71.30
25914;DHT22;13718;50.922;5.346;2023-05-29T13:08:03;22.80;71.30
25914;DHT22;13718;50.922;5.346;2023-05-29T13:10:31;22.90;71.40
25914;DHT22;13718;50.922;5.346;2023-05-29T13:12:57;23.30;69.90
25914;DHT22;13718;50.922;5.346;2023-05-29T13:15:25;23.30;70.00
25914;DHT22;13718;50.922;5.346;2023-05-29T13:17:52;23.10;71.30
25914;DHT22;13718;50.922;5.346;2023-05-29T13:20:19;22.80;71.00
25914;DHT22;13718;50.922;5.346;2023-05-29T13:22:46;22.70;70.70
25914;DHT22;13718;50.922;5.346;2023-05-29T13:25:14;22.70;73.00
25914;DHT22;13718;50.922;5.346;2023-05-29T13:27:42;22.90;71.50
25914;DHT22;13718;50.922;5.346;2023-05-29T13:30:09;22.80;70.80
25914;DHT22;13718;50.922;5.346;2023-05-29T13:32:35;22.60;72.40
25914;DHT22;13718;50.922;5.346;2023-05-29T13:35:02;22.40;71.10
25914;DHT22;13718;50.922;5.346;2023-05-29T13:37:28;22.20;71.10
25914;DHT22;13718;50.922;5.346;2023-05-29T13:39:54;22.10;72.10
25914;DHT22;13718;50.922;5.346;2023-05-29T13:42:20;22.20;72.00
25914;DHT22;13718;50.922;5.346;2023-05-29T13:44:47;22.50;71.80
25914;DHT22;13718;50.922;5.346;2023-05-29T13:47:13;22.50;71.60
25914;DHT22;13718;50.922;5.346;2023-05-29T13:49:39;22.70;71.80
25914;DHT22;13718;50.922;5.346;2023-05-29T13:52:05;23.10;70.10
25914;DHT22;13718;50.922;5.346;2023-05-29T13:54:31;23.20;70.10
25914;DHT22;13718;50.922;5.346;2023-05-29T13:57:04;23.10;69.40
25914;DHT22;13718;50.922;5.346;2023-05-29T13:59:34;23.30;69.40
25914;DHT22;13718;50.922;5.346;2023-05-29T14:02:00;23.40;70.40
25914;DHT22;13718;50.922;5.346;2023-05-29T14:04:28;23.20;69.70
25914;DHT22;13718;50.922;5.346;2023-05-29T14:06:54;23.00;70.00
25914;DHT22;13718;50.922;5.346;2023-05-29T14:09:21;23.00;69.70
25914;DHT22;13718;50.922;5.346;2023-05-29T14:12:02;22.50;70.60
25914;DHT22;13718;50.922;5.346;2023-05-29T14:14:28;22.20;71.30
25914;DHT22;13718;50.922;5.346;2023-05-29T14:16:54;22.10;72.00
25914;DHT22;13718;50.922;5.346;2023-05-29T14:19:20;22.00;72.60
25914;DHT22;13718;50.922;5.346;2023-05-29T14:21:46;22.00;72.40
25914;DHT22;13718;50.922;5.346;2023-05-29T14:24:12;22.20;72.50
25914;DHT22;13718;50.922;5.346;2023-05-29T14:26:38;22.40;71.50
25914;DHT22;13718;50.922;5.346;2023-05-29T14:29:04;22.60;71.00
25914;DHT22;13718;50.922;5.346;2023-05-29T14:31:30;23.00;70.00
25914;DHT22;13718;50.922;5.346;2023-05-29T14:33:56;22.90;69.80
25914;DHT22;13718;50.922;5.346;2023-05-29T14:36:22;22.70;71.00
25914;DHT22;13718;50.922;5.346;2023-05-29T14:38:48;22.80;70.10
25914;DHT22;13718;50.922;5.346;2023-05-29T14:41:15;22.80;69.60
25914;DHT22;13718;50.922;5.346;2023-05-29T14:43:42;22.90;69.60
25914;DHT22;13718;50.922;5.346;2023-05-29T14:46:08;22.90;69.40
25914;DHT22;13718;50.922;5.346;2023-05-29T14:48:34;22.90;69.50
25914;DHT22;13718;50.922;5.346;2023-05-29T14:51:00;22.60;70.50
25914;DHT22;13718;50.922;5.346;2023-05-29T14:53:25;22.80;70.70
25914;DHT22;13718;50.922;5.346;2023-05-29T14:55:51;22.50;70.20
25914;DHT22;13718;50.922;5.346;2023-05-29T14:58:17;22.30;71.10
25914;DHT22;13718;50.922;5.346;2023-05-29T15:00:42;22.40;70.70
25914;DHT22;13718;50.922;5.346;2023-05-29T15:03:08;22.60;70.60
25914;DHT22;13718;50.922;5.346;2023-05-29T15:05:33;22.50;70.80
25914;DHT22;13718;50.922;5.346;2023-05-29T15:07:59;22.00;71.00
25914;DHT22;13718;50.922;5.346;2023-05-29T15:10:28;21.70;72.80
25914;DHT22;13718;50.922;5.346;2023-05-29T15:12:54;21.60;72.90
25914;DHT22;13718;50.922;5.346;2023-05-29T15:15:27;21.70;72.80
25914;DHT22;13718;50.922;5.346;2023-05-29T15:17:53;21.80;73.10
25914;DHT22;13718;50.922;5.346;2023-05-29T15:20:25;22.10;72.10
25914;DHT22;13718;50.922;5.346;2023-05-29T15:22:52;22.10;71.70
25914;DHT22;13718;50.922;5.346;2023-05-29T15:25:20;22.40;70.80
25914;DHT22;13718;50.922;5.346;2023-05-29T15:27:46;22.30;71.10
25914;DHT22;13718;50.922;5.346;2023-05-29T15:30:16;22.00;71.80
25914;DHT22;13718;50.922;5.346;2023-05-29T15:32:42;21.90;71.80
25914;DHT22;13718;50.922;5.346;2023-05-29T15:35:14;21.80;72.60
25914;DHT22;13718;50.922;5.346;2023-05-29T15:37:41;21.80;73.00
25914;DHT22;13718;50.922;5.346;2023-05-29T15:40:07;21.90;72.00
25914;DHT22;13718;50.922;5.346;2023-05-29T15:42:34;22.00;71.00
25914;DHT22;13718;50.922;5.346;2023-05-29T15:45:01;21.90;72.50
25914;DHT22;13718;50.922;5.346;2023-05-29T15:47:29;21.50;71.60
25914;DHT22;13718;50.922;5.346;2023-05-29T15:49:55;21.50;72.50
25914;DHT22;13718;50.922;5.346;2023-05-29T15:52:21;21.50;72.30
25914;DHT22;13718;50.922;5.346;2023-05-29T15:54:46;21.70;71.80
25914;DHT22;13718;50.922;5.346;2023-05-29T15:57:12;21.70;71.40
25914;DHT22;13718;50.922;5.346;2023-05-29T15:59:37;21.70;72.10
25914;DHT22;13718;50.922;5.346;2023-05-29T16:02:03;21.70;71.60